Time;durP1;ratioP1;P1;durP2;ratioP2;P2;SDS_P1;SDS_P2;PMS_P1;PMS_P2;Temp;Humidity;BMP_temperature;BMP_pressure;BME280_temperature;BME280_humidity;BME280_pressure;Samples;Min_cycle;Max_cycle;Signal;HPM_P1;HPM_P2
2022/12/14 00:02:19;;;;;;;;;;;;;;;;;;5035006;28;7169;-72
2022/12/14 00:07:46;;;;;;;;;;;;;;;;;;5035782;28;7181;-72
2022/12/14 00:10:33;;;;;;;;;;;;;;;;;;5034949;28;7001;-64
2022/12/14 00:13:00;;;;;;;;;;;;;;;;;;5034996;28;7423;-64
2022/12/14 00:15:51;;;;;;;;;;;;;;;;;;5034854;28;7177;-64
2022/12/14 00:18:16;;;;;;;;;;;;;;;;;;5034828;28;7100;-64
2022/12/14 00:20:50;;;;;;;;;;;;;;;;;;5034687;28;7160;-64
2022/12/14 00:23:16;;;;;;;;;;;;;;;;;;5034683;28;6814;-64
2022/12/14 00:25:48;;;;;;;;;;;;;;;;;;5034883;28;7043;-64
2022/12/14 00:28:22;;;;;;;;;;;;;;;;;;5034763;28;7587;-64
2022/12/14 00:30:48;;;;;;;;;;;;;;;;;;5034600;28;7254;-64
2022/12/14 00:33:13;;;;;;;;;;;;;;;;;;5034709;28;6943;-64
2022/12/14 00:35:50;;;;;;;;;;;;;;;;;;5034696;28;7199;-64
2022/12/14 00:38:15;;;;;;;;;;;;;;;;;;5034739;28;7003;-64
2022/12/14 00:40:41;;;;;;;;;;;;;;;;;;5034675;28;7343;-64
2022/12/14 00:43:18;;;;;;;;;;;;;;;;;;5034708;28;7378;-64
2022/12/14 00:45:44;;;;;;;;;;;;;;;;;;5035380;28;7215;-64
2022/12/14 00:48:10;;;;;;;;;;;;;;;;;;5037657;28;7371;-64
2022/12/14 00:50:47;;;;;;;;;;;;;;;;;;5038413;28;7442;-64
2022/12/14 00:53:12;;;;;;;;;;;;;;;;;;5038880;28;6967;-64
2022/12/14 00:55:53;;;;;;;;;;;;;;;;;;5038363;28;8168;-64
2022/12/14 00:58:21;;;;;;;;;;;;;;;;;;5039265;28;6853;-64
2022/12/14 01:06:46;;;;;;;;;;;;;;;;;;5038325;28;6670;-64
2022/12/14 01:09:12;;;;;;;;;;;;;;;;;;5038129;28;7372;-64
2022/12/14 01:11:39;;;;;;;;;;;;;;;;;;5038176;28;7080;-64
2022/12/14 01:14:05;;;;;;;;;;;;;;;;;;5038196;28;7106;-64
2022/12/14 01:16:31;;;;;;;;;;;;;;;;;;5037935;28;7399;-64
2022/12/14 01:19:13;;;;;;;;;;;;;;;;;;5038656;28;7500;-63
2022/12/14 01:21:39;;;;;;;;;;;;;;;;;;5038064;28;7086;-64
2022/12/14 01:24:06;;;;;;;;;;;;;;;;;;5037634;28;7145;-64
2022/12/14 01:26:36;;;;;;;;;;;;;;;;;;5037740;28;7421;-63
2022/12/14 01:29:32;;;;;;;;;;;;;;;;;;5037780;28;7365;-64
2022/12/14 01:31:57;;;;;;;;;;;;;;;;;;5037494;28;6970;-64
2022/12/14 01:34:31;;;;;;;;;;;;;;;;;;5037759;28;7107;-64
2022/12/14 01:36:57;;;;;;;;;;;;;;;;;;5037683;28;7208;-63
2022/12/14 01:39:30;;;;;;;;;;;;;;;;;;5037551;28;6967;-64
2022/12/14 01:41:55;;;;;;;;;;;;;;;;;;5037600;28;7198;-64
2022/12/14 01:47:33;;;;;;;;;;;;;;;;;;5037207;28;7040;-64
2022/12/14 01:50:06;;;;;;;;;;;;;;;;;;5037377;28;6951;-64
2022/12/14 01:52:38;;;;;;;;;;;;;;;;;;5037331;28;7146;-64
2022/12/14 01:55:09;;;;;;;;;;;;;;;;;;5037358;28;7135;-64
2022/12/14 02:00:39;;;;;;;;;;;;;;;;;;5036997;28;7058;-64
2022/12/14 02:03:05;;;;;;;;;;;;;;;;;;5037253;28;7319;-72
2022/12/14 02:05:33;;;;;;;;;;;;;;;;;;5037275;28;7161;-72
2022/12/14 02:07:59;;;;;;;;;;;;;;;;;;5037664;28;7140;-72
2022/12/14 02:13:47;;;;;;;;;;;;;;;;;;5036834;28;6697;-72
2022/12/14 02:16:14;;;;;;;;;;;;;;;;;;5036839;28;7480;-73
2022/12/14 02:18:45;;;;;;;;;;;;;;;;;;5036892;28;7186;-72
2022/12/14 02:21:18;;;;;;;;;;;;;;;;;;5036839;28;7029;-72
2022/12/14 02:24:02;;;;;;;;;;;;;;;;;;5036830;28;7042;-72
2022/12/14 02:29:58;;;;;;;;;;;;;;;;;;5036163;28;6966;-72
2022/12/14 02:38:23;;;;;;;;;;;;;;;;;;5036851;28;7664;-72
2022/12/14 02:40:52;;;;;;;;;;;;;;;;;;5036510;28;7030;-72
2022/12/14 02:43:45;;;;;;;;;;;;;;;;;;5036520;28;6936;-72
2022/12/14 02:46:25;;;;;;;;;;;;;;;;;;5036416;28;8028;-72
2022/12/14 02:49:10;;;;;;;;;;;;;;;;;;5036046;28;7196;-72
2022/12/14 02:51:35;;;;;;;;;;;;;;;;;;5036381;28;7239;-72
2022/12/14 02:54:21;;;;;;;;;;;;;;;;;;5036672;28;7203;-72
2022/12/14 02:56:52;;;;;;;;;;;;;;;;;;5035875;28;7189;-72
2022/12/14 02:59:47;;;;;;;;;;;;;;;;;;5036584;28;7220;-72
2022/12/14 03:02:13;;;;;;;;;;;;;;;;;;5035677;28;7404;-72
2022/12/14 03:04:55;;;;;;;;;;;;;;;;;;5036004;28;7347;-72
2022/12/14 03:07:23;;;;;;;;;;;;;;;;;;5035831;28;7178;-72
2022/12/14 03:10:10;;;;;;;;;;;;;;;;;;5034748;28;7075;-72
2022/12/14 03:12:39;;;;;;;;;;;;;;;;;;5035745;28;7342;-72
2022/12/14 03:15:38;;;;;;;;;;;;;;;;;;5035819;28;7082;-72
2022/12/14 03:18:07;;;;;;;;;;;;;;;;;;5035879;28;7068;-72
2022/12/14 03:20:53;;;;;;;;;;;;;;;;;;5035698;28;7072;-72
2022/12/14 03:23:23;;;;;;;;;;;;;;;;;;5035874;28;7047;-72
2022/12/14 03:26:13;;;;;;;;;;;;;;;;;;5036455;28;6969;-72
2022/12/14 03:28:40;;;;;;;;;;;;;;;;;;5035303;28;7124;-72
2022/12/14 03:31:14;;;;;;;;;;;;;;;;;;5035372;28;7157;-72
2022/12/14 03:33:49;;;;;;;;;;;;;;;;;;5036472;28;7256;-72
2022/12/14 03:36:33;;;;;;;;;;;;;;;;;;5035424;28;7230;-73
2022/12/14 03:39:02;;;;;;;;;;;;;;;;;;5035266;28;7186;-72
2022/12/14 03:41:42;;;;;;;;;;;;;;;;;;5018313;28;8765;-72
2022/12/14 03:47:25;;;;;;;;;;;;;;;;;;5035181;28;6795;-72
2022/12/14 03:50:12;;;;;;;;;;;;;;;;;;5035165;28;7575;-72
2022/12/14 03:52:55;;;;;;;;;;;;;;;;;;5035232;28;7163;-72
2022/12/14 03:55:41;;;;;;;;;;;;;;;;;;5035130;28;7161;-72
2022/12/14 03:58:07;;;;;;;;;;;;;;;;;;5034729;28;6889;-72
2022/12/14 04:01:04;;;;;;;;;;;;;;;;;;5035100;28;7377;-72
2022/12/14 04:04:01;;;;;;;;;;;;;;;;;;5034612;28;8776;-72
2022/12/14 04:06:48;;;;;;;;;;;;;;;;;;5000189;28;7340;-72
2022/12/14 04:09:14;;;;;;;;;;;;;;;;;;5034909;28;6966;-72
2022/12/14 04:20:40;;;;;;;;;;;;;;;;;;5034982;28;6799;-72
2022/12/14 04:26:03;;;;;;;;;;;;;;;;;;5034875;28;7371;-72
2022/12/14 04:26:16;;;;;;;;;;;;;;;;;;5034387;28;7269;-72
2022/12/14 04:31:42;;;;;;;;;;;;;;;;;;5035085;28;6915;-72
2022/12/14 04:34:11;;;;;;;;;;;;;;;;;;5035268;28;6977;-72
2022/12/14 04:37:03;;;;;;;;;;;;;;;;;;5034686;28;7228;-72
2022/12/14 04:39:39;;;;;;;;;;;;;;;;;;5035449;28;7481;-72
2022/12/14 04:42:18;;;;;;;;;;;;;;;;;;5034578;28;7184;-72
2022/12/14 04:44:49;;;;;;;;;;;;;;;;;;5034667;28;7350;-72
2022/12/14 04:47:16;;;;;;;;;;;;;;;;;;5017406;28;8615;-72
2022/12/14 04:49:42;;;;;;;;;;;;;;;;;;5034492;28;6905;-72
2022/12/14 04:52:15;;;;;;;;;;;;;;;;;;5034605;28;7257;-72
2022/12/14 04:54:52;;;;;;;;;;;;;;;;;;5034588;28;7050;-72
2022/12/14 04:57:34;;;;;;;;;;;;;;;;;;5034490;28;8417;-72
2022/12/14 05:00:00;;;;;;;;;;;;;;;;;;5034477;28;7406;-72
2022/12/14 05:02:46;;;;;;;;;;;;;;;;;;5034306;28;7698;-72
2022/12/14 05:05:25;;;;;;;;;;;;;;;;;;5034775;28;7836;-72
2022/12/14 05:08:19;;;;;;;;;;;;;;;;;;5016927;28;7180;-64
2022/12/14 05:10:56;;;;;;;;;;;;;;;;;;5033920;28;8217;-64
2022/12/14 05:13:38;;;;;;;;;;;;;;;;;;5034694;28;7169;-64
2022/12/14 05:16:04;;;;;;;;;;;;;;;;;;5034267;28;7012;-64
2022/12/14 05:18:42;;;;;;;;;;;;;;;;;;5034375;28;7025;-64
2022/12/14 05:21:45;;;;;;;;;;;;;;;;;;5034132;28;7174;-64
2022/12/14 05:23:59;;;;;;;;;;;;;;;;;;5033791;28;6932;-64
2022/12/14 05:26:24;;;;;;;;;;;;;;;;;;5035566;28;7272;-64
2022/12/14 05:28:50;;;;;;;;;;;;;;;;;;5032976;28;7143;-64
2022/12/14 05:31:15;;;;;;;;;;;;;;;;;;5034032;28;6968;-64
2022/12/14 05:34:00;;;;;;;;;;;;;;;;;;5036820;28;7208;-63
2022/12/14 05:36:25;;;;;;;;;;;;;;;;;;5037632;28;7433;-64
2022/12/14 05:38:51;;;;;;;;;;;;;;;;;;5037665;28;7022;-64
2022/12/14 05:44:19;;;;;;;;;;;;;;;;;;5037388;28;6920;-64
2022/12/14 05:46:45;;;;;;;;;;;;;;;;;;5037559;28;7307;-72
2022/12/14 05:49:15;;;;;;;;;;;;;;;;;;5037460;28;6940;-72
2022/12/14 05:51:40;;;;;;;;;;;;;;;;;;5037543;28;6948;-72
2022/12/14 05:54:17;;;;;;;;;;;;;;;;;;5037447;28;7168;-64
2022/12/14 05:56:42;;;;;;;;;;;;;;;;;;5037196;28;7040;-63
2022/12/14 05:59:09;;;;;;;;;;;;;;;;;;5037353;28;7369;-63
2022/12/14 06:04:36;;;;;;;;;;;;;;;;;;5038059;28;7108;-74
2022/12/14 06:07:02;;;;;;;;;;;;;;;;;;5037130;28;7211;-66
2022/12/14 06:09:56;;;;;;;;;;;;;;;;;;5037049;28;7586;-66
2022/12/14 06:12:21;;;;;;;;;;;;;;;;;;5037119;28;7187;-70
2022/12/14 06:14:58;;;;;;;;;;;;;;;;;;5035530;28;7039;-65
2022/12/14 06:17:23;;;;;;;;;;;;;;;;;;5035342;28;6972;-65
2022/12/14 06:19:56;;;;;;;;;;;;;;;;;;5036367;28;7077;-65
2022/12/14 06:22:21;;;;;;;;;;;;;;;;;;5035868;28;7038;-65
2022/12/14 06:25:06;;;;;;;;;;;;;;;;;;5036639;28;7241;-65
2022/12/14 06:27:32;;;;;;;;;;;;;;;;;;5036130;28;8837;-65
2022/12/14 06:30:01;;;;;;;;;;;;;;;;;;5035558;28;7407;-66
2022/12/14 06:32:38;;;;;;;;;;;;;;;;;;5026824;28;8763;-65
2022/12/14 17:08:36;;;;;;;;;;;;;;;;;;4992920;28;6752;-64
2022/12/14 17:11:02;;;;;;;;;;;;;;;;;;4993016;28;6884;-64
2022/12/14 17:13:28;;;;;;;;;;;;;;;;;;4992910;28;6945;-64
2022/12/14 17:16:05;;;;;;;;;;;;;;;;;;4993114;28;7389;-64
2022/12/14 17:18:33;;;;;;;;;;;;;;;;;;4993087;28;6825;-64
2022/12/14 17:21:00;;;;;;;;;;;;;;;;;;4992847;28;7908;-64
2022/12/14 17:23:27;;;;;;;;;;;;;;;;;;4992620;28;7023;-64
2022/12/14 17:25:52;;;;;;;;;;;;;;;;;;4993732;28;7176;-64
2022/12/14 17:28:23;;;;;;;;;;;;;;;;;;4992824;28;7370;-64
2022/12/14 17:30:56;;;;;;;;;;;;;;;;;;4992883;28;7202;-73
2022/12/14 17:33:25;;;;;;;;;;;;;;;;;;4992747;28;7431;-73
2022/12/14 17:35:52;;;;;;;;;;;;;;;;;;4992717;28;7359;-73
2022/12/14 17:38:31;;;;;;;;;;;;;;;;;;4992810;28;7227;-74
2022/12/14 17:40:57;;;;;;;;;;;;;;;;;;4993079;28;8749;-73
2022/12/14 17:43:25;;;;;;;;;;;;;;;;;;4992132;28;7016;-73
2022/12/14 17:45:52;;;;;;;;;;;;;;;;;;4992174;28;7014;-73
2022/12/14 17:48:27;;;;;;;;;;;;;;;;;;4992790;28;6943;-74
2022/12/14 17:50:54;;;;;;;;;;;;;;;;;;4992391;28;7411;-73
2022/12/14 17:53:25;;;;;;;;;;;;;;;;;;4992680;28;7141;-73
2022/12/14 17:55:50;;;;;;;;;;;;;;;;;;4992298;28;7184;-64
2022/12/14 17:58:16;;;;;;;;;;;;;;;;;;4992451;28;7135;-64
2022/12/14 18:01:07;;;;;;;;;;;;;;;;;;4991051;28;7211;-64
2022/12/14 18:03:36;;;;;;;;;;;;;;;;;;5011197;28;7561;-64
2022/12/14 18:06:03;;;;;;;;;;;;;;;;;;5011877;28;7418;-64
2022/12/14 18:08:29;;;;;;;;;;;;;;;;;;5012166;28;7191;-64
2022/12/14 18:10:59;;;;;;;;;;;;;;;;;;5011511;28;6912;-63
2022/12/14 18:16:17;;;;;;;;;;;;;;;;;;4998988;28;8639;-63
2022/12/14 18:19:13;;;;;;;;;;;;;;;;;;4998576;28;7455;-64
2022/12/14 18:21:38;;;;;;;;;;;;;;;;;;4996547;28;6851;-63
2022/12/14 18:24:04;;;;;;;;;;;;;;;;;;4998737;28;7104;-63
2022/12/14 18:26:30;;;;;;;;;;;;;;;;;;4998183;28;7302;-64
2022/12/14 18:29:06;;;;;;;;;;;;;;;;;;4998173;28;7005;-64
2022/12/14 18:31:35;;;;;;;;;;;;;;;;;;4998049;28;7159;-64
2022/12/14 18:34:01;;;;;;;;;;;;;;;;;;4998663;28;7100;-64
2022/12/14 18:36:27;;;;;;;;;;;;;;;;;;4998432;28;7137;-64
2022/12/14 18:38:53;;;;;;;;;;;;;;;;;;4998002;28;7339;-64
2022/12/14 18:41:21;;;;;;;;;;;;;;;;;;4997823;28;7324;-63
2022/12/14 18:47:05;;;;;;;;;;;;;;;;;;4997627;28;6894;-64
2022/12/14 18:49:31;;;;;;;;;;;;;;;;;;4997330;28;7140;-64
2022/12/14 18:52:06;;;;;;;;;;;;;;;;;;4997621;28;7604;-64
2022/12/14 18:54:32;;;;;;;;;;;;;;;;;;4979960;28;6996;-64
2022/12/14 18:57:10;;;;;;;;;;;;;;;;;;4997571;28;7163;-64
2022/12/14 18:59:36;;;;;;;;;;;;;;;;;;4997737;28;6872;-64
2022/12/14 19:02:14;;;;;;;;;;;;;;;;;;4997242;28;7361;-64
2022/12/14 19:04:40;;;;;;;;;;;;;;;;;;4997525;28;7422;-64
2022/12/14 19:07:22;;;;;;;;;;;;;;;;;;4997367;28;6906;-74
2022/12/14 19:09:48;;;;;;;;;;;;;;;;;;4997371;28;7124;-73
2022/12/14 19:12:20;;;;;;;;;;;;;;;;;;4997066;28;7113;-73
2022/12/14 19:14:46;;;;;;;;;;;;;;;;;;4997172;28;7058;-73
2022/12/14 19:20:16;;;;;;;;;;;;;;;;;;4997018;28;6681;-73
2022/12/14 19:22:42;;;;;;;;;;;;;;;;;;4997636;28;7164;-73
2022/12/14 19:25:14;;;;;;;;;;;;;;;;;;4996102;28;6923;-73
2022/12/14 19:27:41;;;;;;;;;;;;;;;;;;4997922;28;7231;-73
2022/12/14 19:30:09;;;;;;;;;;;;;;;;;;4996699;28;7132;-73
2022/12/14 19:32:54;;;;;;;;;;;;;;;;;;4998001;28;6958;-73
2022/12/14 19:35:22;;;;;;;;;;;;;;;;;;4997339;28;6944;-73
2022/12/14 19:37:48;;;;;;;;;;;;;;;;;;4996990;28;6879;-73
2022/12/14 19:40:14;;;;;;;;;;;;;;;;;;4997280;28;7104;-73
2022/12/14 19:43:03;;;;;;;;;;;;;;;;;;4996637;28;6951;-73
2022/12/14 19:45:29;;;;;;;;;;;;;;;;;;4997131;28;7177;-73
2022/12/14 19:47:55;;;;;;;;;;;;;;;;;;4996991;28;7094;-73
2022/12/14 19:50:31;;;;;;;;;;;;;;;;;;4996438;28;7030;-72
2022/12/14 19:52:56;;;;;;;;;;;;;;;;;;4996554;28;7470;-72
2022/12/14 19:55:22;;;;;;;;;;;;;;;;;;4996576;28;7293;-73
2022/12/14 19:58:14;;;;;;;;;;;;;;;;;;4996242;28;6909;-73
2022/12/14 20:00:40;;;;;;;;;;;;;;;;;;4997003;28;6932;-72
2022/12/14 20:03:05;;;;;;;;;;;;;;;;;;4990443;28;6819;-73
2022/12/14 20:05:43;;;;;;;;;;;;;;;;;;4996271;28;7109;-72
2022/12/14 20:08:09;;;;;;;;;;;;;;;;;;4996391;28;7043;-73
2022/12/14 20:10:35;;;;;;;;;;;;;;;;;;4996171;28;7385;-73
2022/12/14 20:13:01;;;;;;;;;;;;;;;;;;4996303;28;6855;-73
2022/12/14 20:15:27;;;;;;;;;;;;;;;;;;4996088;28;7129;-73
2022/12/14 20:17:53;;;;;;;;;;;;;;;;;;4996217;28;7498;-73
2022/12/14 20:20:18;;;;;;;;;;;;;;;;;;4996300;28;7065;-73
2022/12/14 20:22:56;;;;;;;;;;;;;;;;;;4995812;28;7352;-73
2022/12/14 20:25:22;;;;;;;;;;;;;;;;;;4996051;28;7352;-73
2022/12/14 20:27:47;;;;;;;;;;;;;;;;;;4995851;28;6924;-73
2022/12/14 20:30:15;;;;;;;;;;;;;;;;;;4995809;28;7105;-73
2022/12/14 20:32:41;;;;;;;;;;;;;;;;;;4996161;28;7415;-73
2022/12/14 20:35:08;;;;;;;;;;;;;;;;;;4995900;28;7247;-73
2022/12/14 20:37:34;;;;;;;;;;;;;;;;;;4995926;28;7409;-73
2022/12/14 20:40:00;;;;;;;;;;;;;;;;;;4996099;28;7107;-72
2022/12/14 20:42:33;;;;;;;;;;;;;;;;;;4995645;28;7096;-73
2022/12/14 20:44:58;;;;;;;;;;;;;;;;;;4996052;28;7162;-73
2022/12/14 20:47:24;;;;;;;;;;;;;;;;;;4995902;28;7494;-73
2022/12/14 20:50:14;;;;;;;;;;;;;;;;;;4996180;28;7277;-73
2022/12/14 20:52:40;;;;;;;;;;;;;;;;;;4995566;28;7260;-73
2022/12/14 20:55:06;;;;;;;;;;;;;;;;;;4995597;28;7141;-73
2022/12/14 20:57:32;;;;;;;;;;;;;;;;;;4978012;28;6992;-73
2022/12/14 21:00:17;;;;;;;;;;;;;;;;;;4996387;28;7225;-73
2022/12/14 21:06:09;;;;;;;;;;;;;;;;;;4995327;28;6689;-73
2022/12/14 21:09:00;;;;;;;;;;;;;;;;;;4995358;28;7042;-73
2022/12/14 21:14:10;;;;;;;;;;;;;;;;;;4995996;28;7489;-64
2022/12/14 21:16:36;;;;;;;;;;;;;;;;;;4995332;28;7071;-65
2022/12/14 21:22:07;;;;;;;;;;;;;;;;;;4995201;28;6700;-64
2022/12/14 21:24:35;;;;;;;;;;;;;;;;;;4995439;28;7354;-64
2022/12/14 21:27:01;;;;;;;;;;;;;;;;;;4996323;28;7233;-64
2022/12/14 21:29:41;;;;;;;;;;;;;;;;;;4995338;28;6932;-73
2022/12/14 21:32:06;;;;;;;;;;;;;;;;;;4995766;28;7111;-73
2022/12/14 21:34:41;;;;;;;;;;;;;;;;;;4995434;28;7382;-64
2022/12/14 21:37:07;;;;;;;;;;;;;;;;;;4995425;28;7188;-64
2022/12/14 21:39:35;;;;;;;;;;;;;;;;;;4995491;28;7192;-64
2022/12/14 21:42:14;;;;;;;;;;;;;;;;;;4995500;28;7118;-64
2022/12/14 21:44:43;;;;;;;;;;;;;;;;;;4994995;28;7010;-64
2022/12/14 21:47:12;;;;;;;;;;;;;;;;;;4995912;28;6956;-64
2022/12/14 21:49:39;;;;;;;;;;;;;;;;;;4998968;28;7234;-64
2022/12/14 21:52:06;;;;;;;;;;;;;;;;;;4999284;28;7439;-64
2022/12/14 21:54:40;;;;;;;;;;;;;;;;;;4999426;28;7369;-64
2022/12/14 21:59:50;;;;;;;;;;;;;;;;;;4998990;28;6800;-64
2022/12/14 22:02:17;;;;;;;;;;;;;;;;;;4998003;28;7882;-64
2022/12/14 22:04:54;;;;;;;;;;;;;;;;;;4998505;28;6940;-64
2022/12/14 22:07:22;;;;;;;;;;;;;;;;;;4998610;28;7121;-64
2022/12/14 22:09:48;;;;;;;;;;;;;;;;;;4999028;28;7584;-64
2022/12/14 22:12:27;;;;;;;;;;;;;;;;;;4998007;28;7198;-64
2022/12/14 22:14:52;;;;;;;;;;;;;;;;;;4998687;28;6853;-64
2022/12/14 22:20:18;;;;;;;;;;;;;;;;;;4998574;28;6765;-64
2022/12/14 22:22:44;;;;;;;;;;;;;;;;;;4999452;28;7037;-64
2022/12/14 22:25:32;;;;;;;;;;;;;;;;;;4998243;28;7275;-65
2022/12/14 22:27:58;;;;;;;;;;;;;;;;;;4998195;28;7432;-65
2022/12/14 22:33:32;;;;;;;;;;;;;;;;;;4998041;28;6981;-73
2022/12/14 22:36:01;;;;;;;;;;;;;;;;;;4998023;28;7432;-73
2022/12/14 22:38:30;;;;;;;;;;;;;;;;;;4980795;28;7199;-73
2022/12/14 22:41:04;;;;;;;;;;;;;;;;;;4998112;28;6948;-73
2022/12/14 22:43:30;;;;;;;;;;;;;;;;;;4997941;28;7167;-73
2022/12/14 22:46:00;;;;;;;;;;;;;;;;;;4997899;28;7795;-73
2022/12/14 22:48:26;;;;;;;;;;;;;;;;;;4998187;28;7124;-64
2022/12/14 22:51:05;;;;;;;;;;;;;;;;;;4997812;28;7023;-65
2022/12/14 22:53:32;;;;;;;;;;;;;;;;;;4998662;28;7337;-65
2022/12/14 22:56:04;;;;;;;;;;;;;;;;;;4997890;28;7560;-73
2022/12/14 22:58:31;;;;;;;;;;;;;;;;;;4997623;28;7058;-74
2022/12/14 23:01:19;;;;;;;;;;;;;;;;;;4997715;28;7121;-64
2022/12/14 23:03:52;;;;;;;;;;;;;;;;;;4997958;28;7216;-64
2022/12/14 23:06:17;;;;;;;;;;;;;;;;;;4998069;28;7213;-64
